• Join FlightAware (Why Join?)
  • Login
  • US Flag 
08:28AM EDT


 

Airport Tracker/Info


-or-


 

Live Flight TrackerFlight Track Log ✈ GLA154 ✈ 26-Apr-2013 ✈ KIGM - KLAX

Flight Track Log - Related Links

Times and Time Zones

All times are in EDT time to prevent confusion due to time zone crossing. See the GLA154 flight status page for this flight to view local times or setup timezone preferences in your user account.

Time Position Orientation Groundspeed Altitude Reporting Facility
EDT Latitude Longitude Course Direction KTS MPH feet Rate Location/Type
10:18AM 35.1414 -114.0569 219° Southwest 199 229 8,800  Level Los Angeles Center
10:19AM 35.1014 -114.1097 227° Southwest 208 239 10,500 1,440 Climbing Los Angeles Center
10:20AM 35.0692 -114.1775 240° Southwest 241 277 11,800 1,200 Climbing Los Angeles Center
10:21AM 35.0594 -114.2533 261° West 231 266 13,100 1,260 Climbing Los Angeles Center
10:22AM 35.0522 -114.3322 264° West 233 268 14,500 1,560 Climbing Los Angeles Center
10:23AM 35.0439 -114.4119 263° West 235 270 16,300 1,620 Climbing Los Angeles Center
10:24AM 35.0306 -114.5056 260° West 234 269 17,900 1,500 Climbing Los Angeles Center
10:25AM 35.0219 -114.5808 262° West 228 262 19,500 960 Climbing Los Angeles Center
10:26AM 35.0128 -114.6569 262° West 226 260 20,000 240 Climbing Los Angeles Center
10:27AM 35.0081 -114.7419 266° West 243 280 20,100  Climbing Los Angeles Center
10:28AM 35.0119 -114.8261 273° West 249 287 20,000  Descending Los Angeles Center
10:29AM 35.0064 -114.9125 266° West 254 292 20,100  Climbing Los Angeles Center
10:31AM 34.9969 -115.0000 263° West 258 297 20,000  Descending Los Angeles Center
10:32AM 34.9881 -115.1247 265° West 264 304 20,100  Climbing Los Angeles Center
10:33AM 34.9806 -115.2111 264° West 257 296 20,000  Descending Los Angeles Center
10:34AM 34.9708 -115.2958 262° West 263 303 20,100  Climbing Los Angeles Center
10:35AM 34.9622 -115.3842 263° West 262 302 20,000 -60 Descending Los Angeles Center
10:36AM 34.9511 -115.4719 261° West 263 303 20,000  Level Los Angeles Center
10:37AM 34.9369 -115.5603 259° West 265 305 20,000  Level Los Angeles Center
10:38AM 34.9247 -115.6486 260° West 264 304 20,100  Climbing Los Angeles Center
10:39AM 34.9103 -115.7547 261° West 264 304 20,000  Descending Los Angeles Center
10:40AM 34.8956 -115.8422 258° West 265 305 20,100  Climbing Los Angeles Center
10:41AM 34.8825 -115.9303 260° West 264 304 20,000 -60 Descending Los Angeles Center
10:42AM 34.8672 -116.0183 258° West 266 306 20,000  Level Los Angeles Center
10:43AM 34.8536 -116.1075 259° West 267 307 20,000  Level Los Angeles Center
10:44AM 34.8417 -116.1969 261° West 268 308 20,100  Climbing Los Angeles Center
10:45AM 34.8300 -116.2864 261° West 268 308 20,000  Descending Los Angeles Center
10:46AM 34.8128 -116.3925 259° West 268 308 20,100  Climbing Los Angeles Center
10:47AM 34.7822 -116.4983 251° West 272 313 20,100 -60 Level Los Angeles Center
10:48AM 34.7653 -116.5869 257° West 271 312 20,000 -120 Descending Los Angeles Center
10:49AM 34.7561 -116.6786 263° West 271 312 19,900  Descending Los Angeles Center
10:50AM 34.7442 -116.7703 261° West 274 315 20,000 60 Climbing Los Angeles Center
10:51AM 34.7306 -116.8603 260° West 271 312 20,100  Climbing Los Angeles Center
10:52AM 34.7156 -116.9517 259° West 274 315 20,000 -360 Descending Los Angeles Center
10:53AM 34.6983 -117.0619 259° West 276 318 19,400 -840 Descending Los Angeles Center
10:55AM 34.6839 -117.1578 260° West 284 327 18,200 -1,200 Descending Los Angeles Center
10:56AM 34.6822 -117.2700 269° West 279 321 16,800 -1,260 Descending Los Angeles Center
10:57AM 34.6850 -117.3625 272° West 275 316 15,600 -1,020 Descending Los Angeles Center
10:58AM 34.6886 -117.4361 273° West 273 314 14,800 -1,020 Descending Los Angeles Center
10:59AM 34.6908 -117.5542 271° West 285 328 13,600 -1,080 Descending Los Angeles Center
11:00AM 34.6783 -117.6542 261° West 295 339 12,600 -1,020 Descending Los Angeles Center
11:01AM 34.6597 -117.7531 257° West 298 343 11,600 -1,080 Descending Los Angeles Center
11:02AM 34.6400 -117.8694 258° West 293 337 10,200 -1,140 Descending Los Angeles Center
11:03AM 34.6378 -117.9889 269° West 293 337 9,100 -840 Descending Los Angeles Center
11:04AM 34.6247 -118.0842 261° West 290 334 8,500 -540 Descending Los Angeles Center
11:05AM 34.5739 -118.1667 233° Southwest 279 321 8,000 -240 Descending Los Angeles Center
11:06AM 34.5267 -118.2367 231° Southwest 268 308 8,100  Climbing Los Angeles Center
11:07AM 34.4750 -118.2994 225° Southwest 266 306 8,000 -300 Descending Los Angeles Center
11:08AM 34.4025 -118.3208 194° South 266 306 7,600 -540 Descending Los Angeles Center
11:09AM 34.3314 -118.3406 193° South 261 300 6,900 -360 Descending Los Angeles Center
11:10AM 34.2686 -118.3297 172° South 250 288 6,900 -480 Level Los Angeles Center
11:11AM 34.1883 -118.2883 157° South 257 296 6,000 -420 Descending Los Angeles Center
11:12AM 34.1269 -118.2550 156° South 251 289 6,100 -240 Climbing Los Angeles Center
11:13AM 34.0803 -118.2031 137° Southeast 241 277 5,600 -900 Descending Los Angeles Center
11:14AM 34.0311 -118.1519 139° Southeast 237 273 4,300 -960 Descending Los Angeles Center
11:16AM 33.9747 -118.1575 185° South 206 237 3,700 -600 Descending Los Angeles Center
11:17AM 33.9539 -118.2089 244° Southwest 179 206 3,100 -900 Descending Los Angeles Center
11:18AM 33.9489 -118.2814 265° West 181 208 1,900 -1,020 Descending Los Angeles Center
11:19AM 33.9425 -118.3369 262° West 175 201 1,100 -900 Descending Los Angeles Center
11:20AM 33.9386 -118.3808 264° West 149 171 100 -1,020 Descending Los Angeles Center
11:22AM 33.9333 -118.4000 264° West  Level FlightAware Approximate